sensor_id;sensor_type;location;lat;lon;timestamp;pressure;altitude;pressure_sealevel;temperature;humidity
68889;BME280;55930;47.412;8.790;2023-03-13T00:00:03;94390.13;;;6.28;100.00
68889;BME280;55930;47.412;8.790;2023-03-13T00:03:26;94395.28;;;6.41;100.00
68889;BME280;55930;47.412;8.790;2023-03-13T00:06:46;94390.88;;;6.29;100.00
68889;BME280;55930;47.412;8.790;2023-03-13T00:10:07;94390.13;;;6.28;100.00
68889;BME280;55930;47.412;8.790;2023-03-13T00:13:27;94385.19;;;6.30;100.00
68889;BME280;55930;47.412;8.790;2023-03-13T00:16:47;94386.88;;;6.24;100.00
68889;BME280;55930;47.412;8.790;2023-03-13T00:20:08;94382.53;;;6.30;100.00
68889;BME280;55930;47.412;8.790;2023-03-13T00:23:28;94389.94;;;6.23;100.00
68889;BME280;55930;47.412;8.790;2023-03-13T00:26:49;94377.13;;;6.34;100.00
68889;BME280;55930;47.412;8.790;2023-03-13T00:30:09;94389.00;;;6.38;100.00
68889;BME280;55930;47.412;8.790;2023-03-13T00:33:30;94376.81;;;6.32;100.00
68889;BME280;55930;47.412;8.790;2023-03-13T00:36:51;94371.28;;;6.39;100.00
68889;BME280;55930;47.412;8.790;2023-03-13T00:40:11;94364.09;;;6.30;100.00
68889;BME280;55930;47.412;8.790;2023-03-13T00:43:32;94363.91;;;6.25;100.00
68889;BME280;55930;47.412;8.790;2023-03-13T00:46:52;94352.19;;;6.17;100.00
68889;BME280;55930;47.412;8.790;2023-03-13T00:50:12;94349.75;;;6.22;100.00
68889;BME280;55930;47.412;8.790;2023-03-13T00:53:33;94341.38;;;6.24;100.00
68889;BME280;55930;47.412;8.790;2023-03-13T00:56:54;94353.81;;;6.23;100.00
68889;BME280;55930;47.412;8.790;2023-03-13T01:00:16;94356.78;;;6.34;100.00
68889;BME280;55930;47.412;8.790;2023-03-13T01:03:39;94353.09;;;6.32;100.00
68889;BME280;55930;47.412;8.790;2023-03-13T01:07:00;94346.22;;;6.25;100.00
68889;BME280;55930;47.412;8.790;2023-03-13T01:10:20;94345.94;;;6.32;100.00
68889;BME280;55930;47.412;8.790;2023-03-13T01:13:41;94343.91;;;6.36;100.00
68889;BME280;55930;47.412;8.790;2023-03-13T01:17:01;94339.06;;;6.35;100.00
68889;BME280;55930;47.412;8.790;2023-03-13T01:20:21;94338.22;;;6.56;100.00
68889;BME280;55930;47.412;8.790;2023-03-13T01:23:42;94338.09;;;6.50;100.00
68889;BME280;55930;47.412;8.790;2023-03-13T01:27:02;94323.59;;;6.55;100.00
68889;BME280;55930;47.412;8.790;2023-03-13T01:30:22;94330.59;;;6.49;100.00
68889;BME280;55930;47.412;8.790;2023-03-13T01:33:43;94326.81;;;6.50;100.00
68889;BME280;55930;47.412;8.790;2023-03-13T01:37:04;94328.84;;;6.37;100.00
68889;BME280;55930;47.412;8.790;2023-03-13T01:40:24;94320.50;;;6.38;100.00
68889;BME280;55930;47.412;8.790;2023-03-13T01:43:45;94325.91;;;6.35;100.00
68889;BME280;55930;47.412;8.790;2023-03-13T01:47:06;94324.88;;;6.32;100.00
68889;BME280;55930;47.412;8.790;2023-03-13T01:50:26;94322.38;;;6.29;100.00
68889;BME280;55930;47.412;8.790;2023-03-13T01:53:48;94313.16;;;6.24;100.00
68889;BME280;55930;47.412;8.790;2023-03-13T02:00:59;94293.81;;;6.18;100.00
68889;BME280;55930;47.412;8.790;2023-03-13T02:04:19;94301.72;;;6.18;100.00
68889;BME280;55930;47.412;8.790;2023-03-13T02:07:48;94292.19;;;6.11;100.00
68889;BME280;55930;47.412;8.790;2023-03-13T02:11:22;94281.50;;;6.15;100.00
68889;BME280;55930;47.412;8.790;2023-03-13T02:14:43;94285.06;;;6.21;100.00
68889;BME280;55930;47.412;8.790;2023-03-13T02:18:05;94274.38;;;6.25;100.00
68889;BME280;55930;47.412;8.790;2023-03-13T02:24:49;94282.56;;;6.27;100.00
68889;BME280;55930;47.412;8.790;2023-03-13T02:28:14;94274.38;;;6.34;100.00
68889;BME280;55930;47.412;8.790;2023-03-13T02:31:35;94273.09;;;6.38;100.00
68889;BME280;55930;47.412;8.790;2023-03-13T02:34:58;94272.50;;;6.34;100.00
68889;BME280;55930;47.412;8.790;2023-03-13T02:38:25;94271.47;;;6.41;100.00
68889;BME280;55930;47.412;8.790;2023-03-13T02:41:46;94262.84;;;6.49;100.00
68889;BME280;55930;47.412;8.790;2023-03-13T02:45:07;94259.78;;;6.51;98.99
68889;BME280;55930;47.412;8.790;2023-03-13T02:48:31;94261.97;;;6.52;98.95
68889;BME280;55930;47.412;8.790;2023-03-13T02:51:53;94249.53;;;6.53;99.11
68889;BME280;55930;47.412;8.790;2023-03-13T02:55:15;94242.19;;;6.57;99.15
68889;BME280;55930;47.412;8.790;2023-03-13T02:58:38;94237.53;;;6.61;98.69
68889;BME280;55930;47.412;8.790;2023-03-13T03:01:58;94235.03;;;6.58;97.94
68889;BME280;55930;47.412;8.790;2023-03-13T03:05:19;94229.88;;;6.72;97.51
68889;BME280;55930;47.412;8.790;2023-03-13T03:08:39;94223.63;;;6.70;98.25
68889;BME280;55930;47.412;8.790;2023-03-13T03:12:00;94223.16;;;6.80;95.60
68889;BME280;55930;47.412;8.790;2023-03-13T03:15:23;94237.34;;;6.83;96.68
68889;BME280;55930;47.412;8.790;2023-03-13T03:18:46;94236.75;;;6.79;96.70
68889;BME280;55930;47.412;8.790;2023-03-13T03:22:06;94230.72;;;7.06;93.69
68889;BME280;55930;47.412;8.790;2023-03-13T03:25:27;94244.34;;;6.95;95.40
68889;BME280;55930;47.412;8.790;2023-03-13T03:28:47;94239.78;;;7.14;93.10
68889;BME280;55930;47.412;8.790;2023-03-13T03:32:07;94233.75;;;7.22;91.97
68889;BME280;55930;47.412;8.790;2023-03-13T03:35:27;94234.94;;;7.21;93.53
68889;BME280;55930;47.412;8.790;2023-03-13T03:38:48;94233.94;;;7.10;95.33
68889;BME280;55930;47.412;8.790;2023-03-13T03:42:08;94243.03;;;7.09;94.52
68889;BME280;55930;47.412;8.790;2023-03-13T03:45:28;94230.38;;;7.22;94.48
68889;BME280;55930;47.412;8.790;2023-03-13T03:48:49;94227.75;;;7.22;92.82
68889;BME280;55930;47.412;8.790;2023-03-13T03:52:09;94223.88;;;7.41;91.06
68889;BME280;55930;47.412;8.790;2023-03-13T03:55:29;94215.28;;;7.64;88.49
68889;BME280;55930;47.412;8.790;2023-03-13T03:58:50;94220.56;;;7.64;88.17
68889;BME280;55930;47.412;8.790;2023-03-13T04:02:10;94220.38;;;7.68;87.67
68889;BME280;55930;47.412;8.790;2023-03-13T04:05:30;94213.75;;;7.82;87.50
68889;BME280;55930;47.412;8.790;2023-03-13T04:08:51;94226.47;;;7.83;87.98
68889;BME280;55930;47.412;8.790;2023-03-13T04:12:11;94223.00;;;7.77;88.67
68889;BME280;55930;47.412;8.790;2023-03-13T04:15:31;94225.31;;;7.84;88.13
68889;BME280;55930;47.412;8.790;2023-03-13T04:18:52;94225.00;;;7.82;88.58
68889;BME280;55930;47.412;8.790;2023-03-13T04:22:12;94231.66;;;7.78;88.63
68889;BME280;55930;47.412;8.790;2023-03-13T04:25:32;94231.41;;;7.90;86.84
68889;BME280;55930;47.412;8.790;2023-03-13T04:28:53;94215.47;;;8.08;84.63
68889;BME280;55930;47.412;8.790;2023-03-13T04:32:13;94214.69;;;7.93;86.88
68889;BME280;55930;47.412;8.790;2023-03-13T04:35:33;94204.91;;;7.85;87.19
68889;BME280;55930;47.412;8.790;2023-03-13T04:38:56;94203.00;;;7.85;87.03
68889;BME280;55930;47.412;8.790;2023-03-13T04:42:16;94207.78;;;7.72;88.70
68889;BME280;55930;47.412;8.790;2023-03-13T04:45:36;94200.59;;;7.73;88.42
68889;BME280;55930;47.412;8.790;2023-03-13T04:48:57;94206.94;;;7.66;90.49
68889;BME280;55930;47.412;8.790;2023-03-13T04:52:17;94207.78;;;7.72;88.68
68889;BME280;55930;47.412;8.790;2023-03-13T04:55:37;94211.09;;;7.82;86.78
68889;BME280;55930;47.412;8.790;2023-03-13T04:58:57;94213.94;;;7.69;88.97
68889;BME280;55930;47.412;8.790;2023-03-13T05:02:18;94207.19;;;7.68;88.60
68889;BME280;55930;47.412;8.790;2023-03-13T05:05:38;94197.38;;;7.68;88.98
68889;BME280;55930;47.412;8.790;2023-03-13T05:09:01;94196.44;;;7.81;88.95
68889;BME280;55930;47.412;8.790;2023-03-13T05:12:22;94200.13;;;7.74;89.77
68889;BME280;55930;47.412;8.790;2023-03-13T05:15:42;94193.72;;;7.66;88.76
68889;BME280;55930;47.412;8.790;2023-03-13T05:19:05;94198.22;;;7.42;89.77
68889;BME280;55930;47.412;8.790;2023-03-13T05:22:25;94201.16;;;7.35;89.79
68889;BME280;55930;47.412;8.790;2023-03-13T05:25:46;94189.19;;;7.34;90.00
68889;BME280;55930;47.412;8.790;2023-03-13T05:29:08;94191.84;;;7.24;91.40
68889;BME280;55930;47.412;8.790;2023-03-13T05:32:29;94185.56;;;7.13;92.99
68889;BME280;55930;47.412;8.790;2023-03-13T05:35:49;94185.16;;;7.05;92.99
68889;BME280;55930;47.412;8.790;2023-03-13T05:39:09;94176.69;;;7.01;92.57
68889;BME280;55930;47.412;8.790;2023-03-13T05:42:32;94183.44;;;6.93;92.74
68889;BME280;55930;47.412;8.790;2023-03-13T05:45:52;94185.63;;;6.95;91.53
68889;BME280;55930;47.412;8.790;2023-03-13T05:49:12;94181.22;;;7.01;90.67
68889;BME280;55930;47.412;8.790;2023-03-13T05:52:33;94178.28;;;6.99;89.70
68889;BME280;55930;47.412;8.790;2023-03-13T05:55:53;94173.91;;;6.96;90.15
68889;BME280;55930;47.412;8.790;2023-03-13T05:59:14;94182.97;;;6.95;91.85
68889;BME280;55930;47.412;8.790;2023-03-13T06:02:34;94181.78;;;7.05;89.70
68889;BME280;55930;47.412;8.790;2023-03-13T06:05:57;94170.66;;;7.10;89.31
68889;BME280;55930;47.412;8.790;2023-03-13T06:09:20;94176.66;;;7.10;89.68
68889;BME280;55930;47.412;8.790;2023-03-13T06:12:43;94187.03;;;7.14;90.12
68889;BME280;55930;47.412;8.790;2023-03-13T06:16:05;94179.28;;;7.10;90.26
68889;BME280;55930;47.412;8.790;2023-03-13T06:19:26;94175.19;;;7.09;90.85
68889;BME280;55930;47.412;8.790;2023-03-13T06:22:46;94183.78;;;7.19;89.64
68889;BME280;55930;47.412;8.790;2023-03-13T06:26:06;94175.72;;;7.22;89.39
68889;BME280;55930;47.412;8.790;2023-03-13T06:29:27;94179.19;;;7.38;88.05
68889;BME280;55930;47.412;8.790;2023-03-13T06:32:47;94175.63;;;7.50;86.13
68889;BME280;55930;47.412;8.790;2023-03-13T06:36:09;94177.47;;;7.58;85.65
68889;BME280;55930;47.412;8.790;2023-03-13T06:39:30;94177.94;;;7.57;85.50
68889;BME280;55930;47.412;8.790;2023-03-13T06:42:50;94176.88;;;7.63;85.37
68889;BME280;55930;47.412;8.790;2023-03-13T06:46:18;94178.09;;;7.77;83.66
68889;BME280;55930;47.412;8.790;2023-03-13T06:49:39;94174.84;;;7.82;83.58
68889;BME280;55930;47.412;8.790;2023-03-13T06:53:00;94169.00;;;8.02;81.44
68889;BME280;55930;47.412;8.790;2023-03-13T06:56:21;94173.44;;;8.20;80.81
68889;BME280;55930;47.412;8.790;2023-03-13T06:59:41;94171.88;;;8.37;80.75
68889;BME280;55930;47.412;8.790;2023-03-13T07:03:02;94188.16;;;8.35;80.40
68889;BME280;55930;47.412;8.790;2023-03-13T07:06:22;94184.97;;;8.31;79.27
68889;BME280;55930;47.412;8.790;2023-03-13T07:09:42;94179.06;;;8.36;79.80
68889;BME280;55930;47.412;8.790;2023-03-13T07:13:03;94172.06;;;8.48;80.23
68889;BME280;55930;47.412;8.790;2023-03-13T07:16:23;94169.19;;;8.90;78.44
68889;BME280;55930;47.412;8.790;2023-03-13T07:19:43;94160.56;;;9.25;76.88
68889;BME280;55930;47.412;8.790;2023-03-13T07:23:06;94164.16;;;9.56;76.55
68889;BME280;55930;47.412;8.790;2023-03-13T07:26:26;94147.09;;;9.57;75.63
68889;BME280;55930;47.412;8.790;2023-03-13T07:29:47;94156.59;;;10.05;74.74
68889;BME280;55930;47.412;8.790;2023-03-13T07:33:07;94164.13;;;9.91;74.77
68889;BME280;55930;47.412;8.790;2023-03-13T07:36:27;94149.19;;;9.74;74.07
68889;BME280;55930;47.412;8.790;2023-03-13T07:39:48;94149.63;;;9.87;73.78
68889;BME280;55930;47.412;8.790;2023-03-13T07:43:09;94150.63;;;9.89;73.49
68889;BME280;55930;47.412;8.790;2023-03-13T07:46:29;94154.06;;;9.95;73.63
68889;BME280;55930;47.412;8.790;2023-03-13T07:49:52;94154.25;;;10.12;74.49
68889;BME280;55930;47.412;8.790;2023-03-13T07:53:13;94159.22;;;10.45;73.86
68889;BME280;55930;47.412;8.790;2023-03-13T07:56:39;94162.44;;;10.55;73.25
68889;BME280;55930;47.412;8.790;2023-03-13T08:00:00;94163.94;;;10.87;72.94
68889;BME280;55930;47.412;8.790;2023-03-13T08:03:20;94155.09;;;11.27;69.80
68889;BME280;55930;47.412;8.790;2023-03-13T08:06:41;94161.69;;;11.74;66.48
68889;BME280;55930;47.412;8.790;2023-03-13T08:10:01;94162.72;;;12.42;66.16
68889;BME280;55930;47.412;8.790;2023-03-13T08:13:22;94159.94;;;12.14;63.66
68889;BME280;55930;47.412;8.790;2023-03-13T08:16:44;94149.63;;;12.27;63.84
68889;BME280;55930;47.412;8.790;2023-03-13T08:20:05;94152.91;;;13.43;60.18
68889;BME280;55930;47.412;8.790;2023-03-13T08:23:27;94154.63;;;13.23;60.24
68889;BME280;55930;47.412;8.790;2023-03-13T08:26:47;94151.19;;;12.73;60.01
68889;BME280;55930;47.412;8.790;2023-03-13T08:30:07;94146.59;;;12.73;60.88
68889;BME280;55930;47.412;8.790;2023-03-13T08:33:28;94147.78;;;12.78;62.35
68889;BME280;55930;47.412;8.790;2023-03-13T08:36:48;94151.91;;;12.79;61.29
68889;BME280;55930;47.412;8.790;2023-03-13T08:40:08;94147.78;;;12.61;61.33
68889;BME280;55930;47.412;8.790;2023-03-13T08:43:30;94132.84;;;13.14;60.66
68889;BME280;55930;47.412;8.790;2023-03-13T08:46:50;94136.44;;;12.83;61.54
68889;BME280;55930;47.412;8.790;2023-03-13T08:50:11;94129.19;;;13.45;60.11
68889;BME280;55930;47.412;8.790;2023-03-13T08:53:32;94129.72;;;17.15;50.13
68889;BME280;55930;47.412;8.790;2023-03-13T08:56:53;94115.00;;;16.90;49.41
68889;BME280;55930;47.412;8.790;2023-03-13T09:00:13;94120.31;;;19.42;42.62
68889;BME280;55930;47.412;8.790;2023-03-13T09:03:35;94117.41;;;18.44;42.65
68889;BME280;55930;47.412;8.790;2023-03-13T09:06:56;94108.91;;;18.87;41.13
68889;BME280;55930;47.412;8.790;2023-03-13T09:10:16;94088.69;;;20.71;38.43
68889;BME280;55930;47.412;8.790;2023-03-13T09:13:38;94091.59;;;21.64;35.78
68889;BME280;55930;47.412;8.790;2023-03-13T09:16:58;94094.81;;;22.48;34.40
68889;BME280;55930;47.412;8.790;2023-03-13T09:20:22;94089.72;;;24.80;30.99
68889;BME280;55930;47.412;8.790;2023-03-13T09:23:42;94091.13;;;24.20;32.33
68889;BME280;55930;47.412;8.790;2023-03-13T09:27:03;94078.59;;;24.86;30.77
68889;BME280;55930;47.412;8.790;2023-03-13T09:30:23;94078.09;;;20.30;36.57
68889;BME280;55930;47.412;8.790;2023-03-13T09:33:44;94061.56;;;22.63;33.56
68889;BME280;55930;47.412;8.790;2023-03-13T09:37:04;94043.63;;;20.28;37.11
68889;BME280;55930;47.412;8.790;2023-03-13T09:40:25;94032.25;;;20.14;38.89
68889;BME280;55930;47.412;8.790;2023-03-13T09:43:49;94042.78;;;19.97;39.53
68889;BME280;55930;47.412;8.790;2023-03-13T09:50:39;94034.00;;;24.79;30.99
68889;BME280;55930;47.412;8.790;2023-03-13T09:57:40;94026.06;;;22.59;32.84
68889;BME280;55930;47.412;8.790;2023-03-13T10:01:03;94021.03;;;25.33;29.08
68889;BME280;55930;47.412;8.790;2023-03-13T10:07:45;94008.56;;;27.58;26.72
68889;BME280;55930;47.412;8.790;2023-03-13T10:11:10;94002.88;;;27.23;27.01
68889;BME280;55930;47.412;8.790;2023-03-13T10:15:06;93993.97;;;24.16;30.67
68889;BME280;55930;47.412;8.790;2023-03-13T10:18:18;93992.78;;;26.13;29.01
68889;BME280;55930;47.412;8.790;2023-03-13T10:21:44;93977.88;;;27.36;27.58
68889;BME280;55930;47.412;8.790;2023-03-13T10:28:39;93965.50;;;26.92;29.98
68889;BME280;55930;47.412;8.790;2023-03-13T10:32:00;93965.88;;;23.43;33.61
68889;BME280;55930;47.412;8.790;2023-03-13T10:35:22;93952.28;;;24.75;31.82
68889;BME280;55930;47.412;8.790;2023-03-13T10:38:50;93938.59;;;24.73;32.01
68889;BME280;55930;47.412;8.790;2023-03-13T10:42:17;93930.84;;;24.69;31.47
68889;BME280;55930;47.412;8.790;2023-03-13T10:45:42;93927.47;;;24.15;34.33
68889;BME280;55930;47.412;8.790;2023-03-13T10:49:03;93923.25;;;22.74;36.09
68889;BME280;55930;47.412;8.790;2023-03-13T10:56:04;93922.28;;;21.57;38.48
68889;BME280;55930;47.412;8.790;2023-03-13T10:59:28;93929.53;;;22.20;39.55
68889;BME280;55930;47.412;8.790;2023-03-13T11:02:50;93916.63;;;21.78;39.53
68889;BME280;55930;47.412;8.790;2023-03-13T11:06:31;93907.81;;;21.22;39.41
68889;BME280;55930;47.412;8.790;2023-03-13T11:09:59;93896.47;;;23.38;37.11
68889;BME280;55930;47.412;8.790;2023-03-13T11:16:54;93873.66;;;26.21;32.33
68889;BME280;55930;47.412;8.790;2023-03-13T11:23:44;93859.34;;;26.83;30.02
68889;BME280;55930;47.412;8.790;2023-03-13T11:37:18;93842.25;;;27.13;29.53
68889;BME280;55930;47.412;8.790;2023-03-13T11:41:01;93842.06;;;26.99;29.17
68889;BME280;55930;47.412;8.790;2023-03-13T12:01:59;93802.44;;;29.29;25.87
68889;BME280;55930;47.412;8.790;2023-03-13T12:05:23;93798.66;;;31.53;23.02
68889;BME280;55930;47.412;8.790;2023-03-13T12:08:48;93785.34;;;32.40;22.37
68889;BME280;55930;47.412;8.790;2023-03-13T12:15:51;93769.69;;;30.35;24.73
68889;BME280;55930;47.412;8.790;2023-03-13T12:19:18;93750.28;;;28.86;25.74
68889;BME280;55930;47.412;8.790;2023-03-13T12:26:14;93740.13;;;25.05;31.42
68889;BME280;55930;47.412;8.790;2023-03-13T12:33:10;93722.56;;;30.09;24.73
68889;BME280;55930;47.412;8.790;2023-03-13T12:36:39;93724.59;;;28.43;25.63
68889;BME280;55930;47.412;8.790;2023-03-13T12:40:03;93707.06;;;32.57;22.59
68889;BME280;55930;47.412;8.790;2023-03-13T12:43:30;93703.66;;;31.60;23.24
68889;BME280;55930;47.412;8.790;2023-03-13T13:00:27;93656.19;;;32.38;22.80
68889;BME280;55930;47.412;8.790;2023-03-13T13:03:51;93644.03;;;33.52;21.16
68889;BME280;55930;47.412;8.790;2023-03-13T13:07:25;93633.50;;;32.04;23.61
68889;BME280;55930;47.412;8.790;2023-03-13T13:10:45;93614.22;;;31.37;22.61
68889;BME280;55930;47.412;8.790;2023-03-13T13:25:24;93568.63;;;25.92;29.23
68889;BME280;55930;47.412;8.790;2023-03-13T13:38:42;93536.25;;;26.17;28.31
68889;BME280;55930;47.412;8.790;2023-03-13T13:43:04;93535.75;;;23.95;32.60
68889;BME280;55930;47.412;8.790;2023-03-13T13:46:00;93526.06;;;23.92;33.00
68889;BME280;55930;47.412;8.790;2023-03-13T13:49:22;93515.47;;;23.48;31.67
68889;BME280;55930;47.412;8.790;2023-03-13T13:52:44;93507.34;;;24.34;30.58
68889;BME280;55930;47.412;8.790;2023-03-13T13:56:13;93511.59;;;23.12;31.13
68889;BME280;55930;47.412;8.790;2023-03-13T13:59:49;93502.69;;;23.58;31.69
68889;BME280;55930;47.412;8.790;2023-03-13T14:03:21;93496.88;;;28.32;26.34
68889;BME280;55930;47.412;8.790;2023-03-13T14:06:41;93483.41;;;29.71;26.18
68889;BME280;55930;47.412;8.790;2023-03-13T14:10:06;93475.88;;;24.91;29.47
68889;BME280;55930;47.412;8.790;2023-03-13T14:13:34;93469.06;;;24.50;29.39
68889;BME280;55930;47.412;8.790;2023-03-13T14:16:54;93471.28;;;28.00;24.73
68889;BME280;55930;47.412;8.790;2023-03-13T14:23:45;93445.91;;;29.44;24.62
68889;BME280;55930;47.412;8.790;2023-03-13T14:27:16;93440.78;;;30.25;23.47
68889;BME280;55930;47.412;8.790;2023-03-13T14:30:36;93438.59;;;28.53;24.33
68889;BME280;55930;47.412;8.790;2023-03-13T14:34:02;93435.16;;;24.29;31.13
68889;BME280;55930;47.412;8.790;2023-03-13T14:37:36;93433.66;;;23.01;33.04
68889;BME280;55930;47.412;8.790;2023-03-13T14:40:56;93429.13;;;23.81;31.72
68889;BME280;55930;47.412;8.790;2023-03-13T14:44:22;93433.09;;;23.99;30.40
68889;BME280;55930;47.412;8.790;2023-03-13T14:47:43;93417.13;;;26.72;26.80
68889;BME280;55930;47.412;8.790;2023-03-13T14:51:10;93415.31;;;27.00;27.34
68889;BME280;55930;47.412;8.790;2023-03-13T14:54:35;93390.44;;;24.71;29.21
68889;BME280;55930;47.412;8.790;2023-03-13T14:57:56;93391.34;;;22.77;31.69
68889;BME280;55930;47.412;8.790;2023-03-13T15:01:23;93386.69;;;22.97;31.66
68889;BME280;55930;47.412;8.790;2023-03-13T15:04:54;93375.13;;;26.28;25.98
68889;BME280;55930;47.412;8.790;2023-03-13T15:08:17;93366.88;;;23.33;30.15
68889;BME280;55930;47.412;8.790;2023-03-13T15:11:41;93366.25;;;22.21;32.14
68889;BME280;55930;47.412;8.790;2023-03-13T15:15:01;93364.56;;;22.16;32.09
68889;BME280;55930;47.412;8.790;2023-03-13T15:22:00;93342.06;;;20.21;35.02
68889;BME280;55930;47.412;8.790;2023-03-13T15:25:21;93340.13;;;20.14;36.01
68889;BME280;55930;47.412;8.790;2023-03-13T15:28:42;93331.09;;;20.44;37.00
68889;BME280;55930;47.412;8.790;2023-03-13T15:32:02;93326.09;;;19.66;39.01
68889;BME280;55930;47.412;8.790;2023-03-13T15:35:25;93319.72;;;20.29;38.00
68889;BME280;55930;47.412;8.790;2023-03-13T15:38:46;93313.94;;;20.57;37.80
68889;BME280;55930;47.412;8.790;2023-03-13T15:42:07;93302.84;;;20.28;39.23
68889;BME280;55930;47.412;8.790;2023-03-13T15:45:27;93294.06;;;20.27;38.16
68889;BME280;55930;47.412;8.790;2023-03-13T15:48:47;93291.53;;;19.63;38.56
68889;BME280;55930;47.412;8.790;2023-03-13T15:52:14;93291.91;;;19.59;40.24
68889;BME280;55930;47.412;8.790;2023-03-13T15:55:37;93266.63;;;20.21;38.81
68889;BME280;55930;47.412;8.790;2023-03-13T15:58:58;93254.56;;;20.47;39.67
68889;BME280;55930;47.412;8.790;2023-03-13T16:02:20;93241.75;;;19.46;43.70
68889;BME280;55930;47.412;8.790;2023-03-13T16:05:40;93245.50;;;19.51;42.66
68889;BME280;55930;47.412;8.790;2023-03-13T16:09:02;93234.69;;;18.94;42.18
68889;BME280;55930;47.412;8.790;2023-03-13T16:12:25;93212.50;;;18.30;41.39
68889;BME280;55930;47.412;8.790;2023-03-13T16:15:46;93213.31;;;18.63;43.83
68889;BME280;55930;47.412;8.790;2023-03-13T16:19:07;93197.38;;;18.65;43.69
68889;BME280;55930;47.412;8.790;2023-03-13T16:22:28;93191.72;;;18.39;47.21
68889;BME280;55930;47.412;8.790;2023-03-13T16:25:48;93198.41;;;18.22;50.41
68889;BME280;55930;47.412;8.790;2023-03-13T16:29:12;93168.97;;;17.84;46.70
68889;BME280;55930;47.412;8.790;2023-03-13T16:32:33;93163.41;;;17.59;51.16
68889;BME280;55930;47.412;8.790;2023-03-13T16:35:53;93171.44;;;16.91;54.03
68889;BME280;55930;47.412;8.790;2023-03-13T16:39:14;93133.34;;;16.77;51.77
68889;BME280;55930;47.412;8.790;2023-03-13T16:42:35;93144.00;;;16.55;54.17
68889;BME280;55930;47.412;8.790;2023-03-13T16:45:55;93141.53;;;15.77;58.19
68889;BME280;55930;47.412;8.790;2023-03-13T16:49:16;93125.88;;;15.89;56.13
68889;BME280;55930;47.412;8.790;2023-03-13T16:52:36;93107.41;;;15.13;61.19
68889;BME280;55930;47.412;8.790;2023-03-13T16:55:56;93118.16;;;14.79;62.72
68889;BME280;55930;47.412;8.790;2023-03-13T16:59:17;93118.06;;;14.38;66.89
68889;BME280;55930;47.412;8.790;2023-03-13T17:02:37;93104.56;;;13.89;71.29
68889;BME280;55930;47.412;8.790;2023-03-13T17:05:58;93094.31;;;13.66;72.22
68889;BME280;55930;47.412;8.790;2023-03-13T17:09:18;93088.94;;;13.93;66.42
68889;BME280;55930;47.412;8.790;2023-03-13T17:12:38;93077.03;;;14.07;64.25
68889;BME280;55930;47.412;8.790;2023-03-13T17:15:59;93062.47;;;14.08;61.92
68889;BME280;55930;47.412;8.790;2023-03-13T17:19:19;93067.31;;;13.96;64.23
68889;BME280;55930;47.412;8.790;2023-03-13T17:22:40;93061.31;;;13.69;65.44
68889;BME280;55930;47.412;8.790;2023-03-13T17:26:00;93025.97;;;13.56;64.62
68889;BME280;55930;47.412;8.790;2023-03-13T17:29:20;93023.34;;;13.29;67.63
68889;BME280;55930;47.412;8.790;2023-03-13T17:32:44;93020.94;;;12.99;66.39
68889;BME280;55930;47.412;8.790;2023-03-13T17:39:34;93013.91;;;13.28;63.08
68889;BME280;55930;47.412;8.790;2023-03-13T17:42:56;93000.47;;;13.08;62.73
68889;BME280;55930;47.412;8.790;2023-03-13T17:46:18;92998.50;;;12.82;64.17
68889;BME280;55930;47.412;8.790;2023-03-13T17:49:39;92990.03;;;12.96;63.93
68889;BME280;55930;47.412;8.790;2023-03-13T17:52:59;92998.19;;;12.85;62.55
68889;BME280;55930;47.412;8.790;2023-03-13T17:56:24;92995.91;;;12.50;68.26
68889;BME280;55930;47.412;8.790;2023-03-13T17:59:45;93005.88;;;11.80;72.89
68889;BME280;55930;47.412;8.790;2023-03-13T18:03:05;93002.88;;;12.53;62.87
68889;BME280;55930;47.412;8.790;2023-03-13T18:09:46;92978.06;;;12.32;62.54
68889;BME280;55930;47.412;8.790;2023-03-13T18:13:06;92961.94;;;12.69;62.08
68889;BME280;55930;47.412;8.790;2023-03-13T18:16:28;92964.88;;;11.94;67.24
68889;BME280;55930;47.412;8.790;2023-03-13T18:19:56;92962.78;;;11.49;68.74
68889;BME280;55930;47.412;8.790;2023-03-13T18:23:16;92950.97;;;12.46;57.61
68889;BME280;55930;47.412;8.790;2023-03-13T18:26:38;92943.84;;;12.68;56.23
68889;BME280;55930;47.412;8.790;2023-03-13T18:30:00;92969.09;;;12.48;57.89
68889;BME280;55930;47.412;8.790;2023-03-13T18:33:21;92953.41;;;11.48;65.61
68889;BME280;55930;47.412;8.790;2023-03-13T18:36:41;92956.09;;;11.43;65.58
68889;BME280;55930;47.412;8.790;2023-03-13T18:40:01;92972.91;;;11.51;63.63
68889;BME280;55930;47.412;8.790;2023-03-13T18:43:26;92957.91;;;11.91;58.72
68889;BME280;55930;47.412;8.790;2023-03-13T18:46:46;92973.94;;;12.17;57.65
68889;BME280;55930;47.412;8.790;2023-03-13T18:50:28;92956.41;;;12.41;55.43
68889;BME280;55930;47.412;8.790;2023-03-13T18:53:47;92959.31;;;12.24;56.72
68889;BME280;55930;47.412;8.790;2023-03-13T18:57:09;92961.22;;;11.78;58.53
68889;BME280;55930;47.412;8.790;2023-03-13T19:00:32;92950.38;;;12.08;55.81
68889;BME280;55930;47.412;8.790;2023-03-13T19:03:52;92954.03;;;11.55;59.71
68889;BME280;55930;47.412;8.790;2023-03-13T19:07:13;92949.41;;;11.74;57.00
68889;BME280;55930;47.412;8.790;2023-03-13T19:10:34;92941.91;;;11.59;57.68
68889;BME280;55930;47.412;8.790;2023-03-13T19:13:57;92960.19;;;11.44;60.16
68889;BME280;55930;47.412;8.790;2023-03-13T19:17:19;92939.25;;;11.40;57.25
68889;BME280;55930;47.412;8.790;2023-03-13T19:20:42;92940.31;;;11.69;56.68
68889;BME280;55930;47.412;8.790;2023-03-13T19:24:05;92954.25;;;11.57;57.88
68889;BME280;55930;47.412;8.790;2023-03-13T19:27:25;92948.66;;;11.41;57.20
68889;BME280;55930;47.412;8.790;2023-03-13T19:30:45;92939.59;;;11.50;56.88
68889;BME280;55930;47.412;8.790;2023-03-13T19:34:07;92951.88;;;11.53;56.29
68889;BME280;55930;47.412;8.790;2023-03-13T19:37:27;92949.16;;;11.77;54.07
68889;BME280;55930;47.412;8.790;2023-03-13T19:40:47;92977.94;;;11.55;59.15
68889;BME280;55930;47.412;8.790;2023-03-13T19:44:08;92970.91;;;11.57;55.15
68889;BME280;55930;47.412;8.790;2023-03-13T19:47:28;92964.72;;;11.86;52.70
68889;BME280;55930;47.412;8.790;2023-03-13T19:50:48;92971.41;;;12.25;51.63